sensor_id;sensor_type;location;lat;lon;timestamp;pressure;altitude;pressure_sealevel;temperature;humidity
12197;BME280;6161;43.014;25.840;2022-08-03T00:01:26;99642.38;;;22.70;nan
12197;BME280;6161;43.014;25.840;2022-08-03T00:03:51;99627.63;;;22.52;nan
12197;BME280;6161;43.014;25.840;2022-08-03T00:08:42;99638.19;;;22.49;nan
12197;BME280;6161;43.014;25.840;2022-08-03T00:11:07;99602.88;;;22.47;nan
12197;BME280;6161;43.014;25.840;2022-08-03T00:13:33;99582.94;;;22.40;nan
12197;BME280;6161;43.014;25.840;2022-08-03T00:15:59;99643.75;;;22.35;nan
12197;BME280;6161;43.014;25.840;2022-08-03T00:18:24;99587.81;;;22.38;nan
12197;BME280;6161;43.014;25.840;2022-08-03T00:20:50;99665.25;;;22.25;nan
12197;BME280;6161;43.014;25.840;2022-08-03T00:23:15;99627.34;;;22.35;nan
12197;BME280;6161;43.014;25.840;2022-08-03T00:25:41;99614.63;;;22.23;nan
12197;BME280;6161;43.014;25.840;2022-08-03T00:28:07;99617.78;;;22.26;nan
12197;BME280;6161;43.014;25.840;2022-08-03T00:30:33;99597.13;;;22.30;nan
12197;BME280;6161;43.014;25.840;2022-08-03T00:32:59;99636.28;;;22.24;nan
12197;BME280;6161;43.014;25.840;2022-08-03T00:35:25;99629.13;;;22.23;nan
12197;BME280;6161;43.014;25.840;2022-08-03T00:40:18;99637.56;;;22.22;nan
12197;BME280;6161;43.014;25.840;2022-08-03T00:45:11;99632.13;;;22.15;nan
12197;BME280;6161;43.014;25.840;2022-08-03T00:47:37;99618.44;;;22.15;nan
12197;BME280;6161;43.014;25.840;2022-08-03T00:50:03;99606.91;;;22.13;nan
12197;BME280;6161;43.014;25.840;2022-08-03T00:52:28;99646.44;;;22.10;nan
12197;BME280;6161;43.014;25.840;2022-08-03T00:54:54;99617.91;;;22.06;nan
12197;BME280;6161;43.014;25.840;2022-08-03T00:57:19;99634.94;;;22.02;nan
12197;BME280;6161;43.014;25.840;2022-08-03T00:59:45;99614.16;;;22.01;nan
12197;BME280;6161;43.014;25.840;2022-08-03T01:02:10;99639.34;;;22.03;nan
12197;BME280;6161;43.014;25.840;2022-08-03T01:04:35;99634.72;;;22.03;nan
12197;BME280;6161;43.014;25.840;2022-08-03T01:07:14;99654.44;;;22.05;nan
12197;BME280;6161;43.014;25.840;2022-08-03T01:15:18;99655.34;;;21.99;nan
12197;BME280;6161;43.014;25.840;2022-08-03T01:17:54;99652.81;;;21.98;nan
12197;BME280;6161;43.014;25.840;2022-08-03T01:25:58;99638.13;;;21.99;nan
12197;BME280;6161;43.014;25.840;2022-08-03T01:31:12;99655.78;;;21.96;nan
12197;BME280;6161;43.014;25.840;2022-08-03T01:33:41;99618.41;;;21.97;nan
12197;BME280;6161;43.014;25.840;2022-08-03T01:36:21;99651.59;;;21.93;nan
12197;BME280;6161;43.014;25.840;2022-08-03T01:38:53;99660.88;;;21.86;nan
12197;BME280;6161;43.014;25.840;2022-08-03T01:41:24;99639.31;;;21.78;nan
12197;BME280;6161;43.014;25.840;2022-08-03T01:43:54;99629.38;;;21.83;nan
12197;BME280;6161;43.014;25.840;2022-08-03T01:46:22;99655.41;;;21.86;nan
12197;BME280;6161;43.014;25.840;2022-08-03T01:48:50;99614.25;;;21.87;nan
12197;BME280;6161;43.014;25.840;2022-08-03T01:51:18;99617.25;;;21.79;nan
12197;BME280;6161;43.014;25.840;2022-08-03T01:53:47;99659.22;;;21.85;nan
12197;BME280;6161;43.014;25.840;2022-08-03T01:56:14;99601.28;;;21.76;nan
12197;BME280;6161;43.014;25.840;2022-08-03T02:03:36;99639.50;;;21.76;nan
12197;BME280;6161;43.014;25.840;2022-08-03T02:08:29;99661.25;;;21.58;nan
12197;BME280;6161;43.014;25.840;2022-08-03T02:10:56;99623.19;;;21.69;nan
12197;BME280;6161;43.014;25.840;2022-08-03T02:13:23;99631.59;;;21.68;nan
12197;BME280;6161;43.014;25.840;2022-08-03T02:15:51;99634.56;;;21.66;nan
12197;BME280;6161;43.014;25.840;2022-08-03T02:18:19;99674.47;;;21.61;nan
12197;BME280;6161;43.014;25.840;2022-08-03T02:20:46;99676.16;;;21.62;nan
12197;BME280;6161;43.014;25.840;2022-08-03T02:23:14;99632.06;;;21.58;nan
12197;BME280;6161;43.014;25.840;2022-08-03T02:25:50;99643.88;;;21.52;nan
12197;BME280;6161;43.014;25.840;2022-08-03T02:28:19;99629.13;;;21.60;nan
12197;BME280;6161;43.014;25.840;2022-08-03T02:30:51;99620.31;;;21.58;nan
12197;BME280;6161;43.014;25.840;2022-08-03T02:33:21;99620.75;;;21.55;nan
12197;BME280;6161;43.014;25.840;2022-08-03T02:35:52;99654.78;;;21.52;nan
12197;BME280;6161;43.014;25.840;2022-08-03T02:38:20;99643.91;;;21.39;nan
12197;BME280;6161;43.014;25.840;2022-08-03T02:40:49;99666.97;;;21.43;nan
12197;BME280;6161;43.014;25.840;2022-08-03T02:43:17;99668.47;;;21.32;nan
12197;BME280;6161;43.014;25.840;2022-08-03T02:45:47;99609.91;;;21.35;nan
12197;BME280;6161;43.014;25.840;2022-08-03T02:48:21;99668.25;;;21.40;nan
12197;BME280;6161;43.014;25.840;2022-08-03T02:50:48;99650.63;;;21.43;nan
12197;BME280;6161;43.014;25.840;2022-08-03T02:55:42;99666.97;;;21.43;nan
12197;BME280;6161;43.014;25.840;2022-08-03T02:58:10;99638.03;;;21.42;nan
12197;BME280;6161;43.014;25.840;2022-08-03T03:03:04;99662.34;;;21.43;nan
12197;BME280;6161;43.014;25.840;2022-08-03T03:10:22;99671.84;;;21.27;nan
12197;BME280;6161;43.014;25.840;2022-08-03T03:12:49;99645.59;;;21.33;nan
12197;BME280;6161;43.014;25.840;2022-08-03T03:15:16;99639.50;;;21.31;nan
12197;BME280;6161;43.014;25.840;2022-08-03T03:17:43;99666.56;;;21.33;nan
12197;BME280;6161;43.014;25.840;2022-08-03T03:20:12;99669.13;;;21.27;nan
12197;BME280;6161;43.014;25.840;2022-08-03T03:22:40;99680.69;;;21.16;nan
12197;BME280;6161;43.014;25.840;2022-08-03T03:25:06;99659.03;;;21.28;nan
12197;BME280;6161;43.014;25.840;2022-08-03T03:27:32;99661.97;;;21.26;nan
12197;BME280;6161;43.014;25.840;2022-08-03T03:29:58;99641.00;;;21.27;nan
12197;BME280;6161;43.014;25.840;2022-08-03T03:32:26;99694.94;;;21.25;nan
12197;BME280;6161;43.014;25.840;2022-08-03T03:37:18;99658.66;;;21.24;nan
12197;BME280;6161;43.014;25.840;2022-08-03T03:39:44;99694.50;;;21.21;nan
12197;BME280;6161;43.014;25.840;2022-08-03T03:42:09;99682.59;;;21.09;nan
12197;BME280;6161;43.014;25.840;2022-08-03T03:44:35;99652.75;;;21.21;nan
12197;BME280;6161;43.014;25.840;2022-08-03T03:49:26;99692.22;;;21.12;nan
12197;BME280;6161;43.014;25.840;2022-08-03T03:51:53;99711.13;;;21.13;nan
12197;BME280;6161;43.014;25.840;2022-08-03T03:54:19;99705.66;;;21.13;nan
12197;BME280;6161;43.014;25.840;2022-08-03T03:59:10;99675.47;;;21.15;nan
12197;BME280;6161;43.014;25.840;2022-08-03T04:01:37;99701.47;;;21.11;nan
12197;BME280;6161;43.014;25.840;2022-08-03T04:04:02;99661.81;;;21.15;nan
12197;BME280;6161;43.014;25.840;2022-08-03T04:06:48;99714.91;;;21.12;nan
12197;BME280;6161;43.014;25.840;2022-08-03T04:09:49;99665.56;;;21.20;nan
12197;BME280;6161;43.014;25.840;2022-08-03T04:15:01;99649.19;;;21.27;nan
12197;BME280;6161;43.014;25.840;2022-08-03T04:17:28;99665.75;;;21.25;nan
12197;BME280;6161;43.014;25.840;2022-08-03T04:24:58;99733.94;;;21.39;nan
12197;BME280;6161;43.014;25.840;2022-08-03T04:27:27;99722.63;;;21.42;nan
12197;BME280;6161;43.014;25.840;2022-08-03T04:29:55;99706.66;;;21.39;nan
12197;BME280;6161;43.014;25.840;2022-08-03T04:34:49;99664.88;;;21.45;nan
12197;BME280;6161;43.014;25.840;2022-08-03T04:40:01;99711.34;;;21.77;nan
12197;BME280;6161;43.014;25.840;2022-08-03T04:42:27;99700.31;;;21.97;nan
12197;BME280;6161;43.014;25.840;2022-08-03T04:44:55;99725.41;;;22.19;nan
12197;BME280;6161;43.014;25.840;2022-08-03T04:47:21;99681.16;;;22.35;nan
12197;BME280;6161;43.014;25.840;2022-08-03T04:49:47;99714.72;;;22.49;nan
12197;BME280;6161;43.014;25.840;2022-08-03T04:52:13;99694.28;;;22.76;nan
12197;BME280;6161;43.014;25.840;2022-08-03T04:54:42;99692.16;;;23.04;nan
12197;BME280;6161;43.014;25.840;2022-08-03T04:57:09;99720.28;;;23.29;nan
12197;BME280;6161;43.014;25.840;2022-08-03T04:59:35;99709.78;;;23.44;nan
12197;BME280;6161;43.014;25.840;2022-08-03T05:02:01;99749.97;;;23.51;nan
12197;BME280;6161;43.014;25.840;2022-08-03T05:04:26;99728.06;;;23.51;nan
12197;BME280;6161;43.014;25.840;2022-08-03T05:06:52;99723.34;;;23.58;nan
12197;BME280;6161;43.014;25.840;2022-08-03T05:09:17;99736.09;;;23.64;nan
12197;BME280;6161;43.014;25.840;2022-08-03T05:11:43;99755.19;;;23.89;nan
12197;BME280;6161;43.014;25.840;2022-08-03T05:16:34;99719.28;;;24.27;nan
12197;BME280;6161;43.014;25.840;2022-08-03T05:18:59;99711.44;;;24.43;nan
12197;BME280;6161;43.014;25.840;2022-08-03T05:23:50;99740.44;;;24.50;nan
12197;BME280;6161;43.014;25.840;2022-08-03T05:28:43;99716.38;;;24.64;nan
12197;BME280;6161;43.014;25.840;2022-08-03T05:31:08;99722.00;;;24.69;nan
12197;BME280;6161;43.014;25.840;2022-08-03T05:35:59;99758.28;;;24.83;nan
12197;BME280;6161;43.014;25.840;2022-08-03T05:38:25;99736.44;;;25.00;nan
12197;BME280;6161;43.014;25.840;2022-08-03T05:40:51;99732.41;;;25.26;nan
12197;BME280;6161;43.014;25.840;2022-08-03T05:43:16;99735.47;;;25.53;nan
12197;BME280;6161;43.014;25.840;2022-08-03T05:48:07;99730.16;;;25.87;nan
12197;BME280;6161;43.014;25.840;2022-08-03T05:50:33;99730.34;;;25.97;nan
12197;BME280;6161;43.014;25.840;2022-08-03T05:53:00;99770.28;;;25.88;nan
12197;BME280;6161;43.014;25.840;2022-08-03T05:55:25;99834.69;;;26.04;nan
12197;BME280;6161;43.014;25.840;2022-08-03T06:00:17;99747.69;;;26.27;nan
12197;BME280;6161;43.014;25.840;2022-08-03T06:05:08;99760.47;;;26.50;nan
12197;BME280;6161;43.014;25.840;2022-08-03T06:07:34;99795.19;;;26.68;nan
12197;BME280;6161;43.014;25.840;2022-08-03T06:09:59;99784.97;;;26.97;nan
12197;BME280;6161;43.014;25.840;2022-08-03T06:12:27;99797.75;;;27.20;nan
12197;BME280;6161;43.014;25.840;2022-08-03T06:14:53;99754.16;;;27.34;nan
12197;BME280;6161;43.014;25.840;2022-08-03T06:17:18;99797.34;;;27.50;nan
12197;BME280;6161;43.014;25.840;2022-08-03T06:19:43;99808.16;;;27.74;nan
12197;BME280;6161;43.014;25.840;2022-08-03T06:22:09;99783.19;;;28.02;nan
12197;BME280;6161;43.014;25.840;2022-08-03T06:24:34;99803.47;;;28.13;nan
12197;BME280;6161;43.014;25.840;2022-08-03T06:27:00;99803.56;;;28.45;nan
12197;BME280;6161;43.014;25.840;2022-08-03T06:29:25;99763.09;;;28.56;nan
12197;BME280;6161;43.014;25.840;2022-08-03T06:34:16;99779.53;;;29.05;nan
12197;BME280;6161;43.014;25.840;2022-08-03T06:39:07;99834.75;;;29.32;nan
12197;BME280;6161;43.014;25.840;2022-08-03T06:41:33;99777.97;;;29.14;nan
12197;BME280;6161;43.014;25.840;2022-08-03T06:43:59;99788.06;;;29.04;nan
12197;BME280;6161;43.014;25.840;2022-08-03T06:46:24;99795.06;;;29.11;nan
12197;BME280;6161;43.014;25.840;2022-08-03T06:48:49;99794.38;;;28.99;nan
12197;BME280;6161;43.014;25.840;2022-08-03T06:51:15;99793.31;;;29.00;nan
12197;BME280;6161;43.014;25.840;2022-08-03T06:53:40;99748.97;;;28.80;nan
12197;BME280;6161;43.014;25.840;2022-08-03T06:56:07;99763.59;;;28.80;nan
12197;BME280;6161;43.014;25.840;2022-08-03T06:58:33;99756.88;;;28.71;nan
12197;BME280;6161;43.014;25.840;2022-08-03T07:00:58;99842.72;;;28.69;nan
12197;BME280;6161;43.014;25.840;2022-08-03T07:03:24;99780.41;;;28.78;nan
12197;BME280;6161;43.014;25.840;2022-08-03T07:05:50;99775.16;;;28.77;nan
12197;BME280;6161;43.014;25.840;2022-08-03T07:08:16;99779.16;;;28.96;nan
12197;BME280;6161;43.014;25.840;2022-08-03T07:10:42;99773.88;;;29.22;nan
12197;BME280;6161;43.014;25.840;2022-08-03T07:13:08;99771.00;;;29.49;nan
12197;BME280;6161;43.014;25.840;2022-08-03T07:15:34;99773.66;;;29.76;nan
12197;BME280;6161;43.014;25.840;2022-08-03T07:20:25;99797.13;;;30.32;nan
12197;BME280;6161;43.014;25.840;2022-08-03T07:22:51;99776.38;;;30.50;nan
12197;BME280;6161;43.014;25.840;2022-08-03T07:25:16;99784.16;;;30.68;nan
12197;BME280;6161;43.014;25.840;2022-08-03T07:27:43;99764.22;;;30.61;nan
12197;BME280;6161;43.014;25.840;2022-08-03T07:30:09;99786.38;;;30.81;nan
12197;BME280;6161;43.014;25.840;2022-08-03T07:32:34;99790.56;;;30.84;nan
12197;BME280;6161;43.014;25.840;2022-08-03T07:35:00;99787.81;;;30.89;nan
12197;BME280;6161;43.014;25.840;2022-08-03T07:37:26;99783.66;;;30.92;nan
12197;BME280;6161;43.014;25.840;2022-08-03T07:42:18;99753.97;;;31.07;nan
12197;BME280;6161;43.014;25.840;2022-08-03T07:47:09;99741.16;;;31.37;nan
12197;BME280;6161;43.014;25.840;2022-08-03T07:49:42;99776.63;;;31.66;nan
12197;BME280;6161;43.014;25.840;2022-08-03T07:52:07;99766.84;;;31.84;nan
12197;BME280;6161;43.014;25.840;2022-08-03T07:57:17;99782.88;;;31.97;nan
12197;BME280;6161;43.014;25.840;2022-08-03T07:59:44;99772.88;;;32.01;nan
12197;BME280;6161;43.014;25.840;2022-08-03T08:02:10;99786.97;;;32.10;nan
12197;BME280;6161;43.014;25.840;2022-08-03T08:04:35;99774.91;;;32.40;nan
12197;BME280;6161;43.014;25.840;2022-08-03T08:07:01;99787.38;;;32.43;nan
12197;BME280;6161;43.014;25.840;2022-08-03T08:09:26;99785.00;;;32.70;nan
12197;BME280;6161;43.014;25.840;2022-08-03T08:11:51;99786.91;;;32.75;nan
12197;BME280;6161;43.014;25.840;2022-08-03T08:14:17;99775.53;;;32.71;nan
12197;BME280;6161;43.014;25.840;2022-08-03T08:16:42;99764.41;;;32.71;nan
12197;BME280;6161;43.014;25.840;2022-08-03T08:19:08;99781.50;;;32.89;nan
12197;BME280;6161;43.014;25.840;2022-08-03T08:21:33;99784.16;;;33.04;nan
12197;BME280;6161;43.014;25.840;2022-08-03T08:23:59;99768.34;;;33.05;nan
12197;BME280;6161;43.014;25.840;2022-08-03T08:26:25;99756.72;;;32.63;nan
12197;BME280;6161;43.014;25.840;2022-08-03T08:28:50;99789.59;;;32.85;nan
12197;BME280;6161;43.014;25.840;2022-08-03T08:31:16;99782.44;;;32.74;nan
12197;BME280;6161;43.014;25.840;2022-08-03T08:33:42;99777.25;;;32.62;nan
12197;BME280;6161;43.014;25.840;2022-08-03T08:36:08;99778.31;;;32.71;nan
12197;BME280;6161;43.014;25.840;2022-08-03T08:38:34;99787.03;;;32.89;nan
12197;BME280;6161;43.014;25.840;2022-08-03T08:40:59;99778.00;;;33.12;nan
12197;BME280;6161;43.014;25.840;2022-08-03T08:48:25;99750.69;;;33.19;nan
12197;BME280;6161;43.014;25.840;2022-08-03T08:50:53;99768.94;;;33.25;nan
12197;BME280;6161;43.014;25.840;2022-08-03T08:55:46;99764.09;;;33.12;nan
12197;BME280;6161;43.014;25.840;2022-08-03T08:58:12;99758.84;;;33.35;nan
12197;BME280;6161;43.014;25.840;2022-08-03T09:03:05;99775.09;;;33.46;nan
12197;BME280;6161;43.014;25.840;2022-08-03T09:05:31;99771.22;;;33.47;nan
12197;BME280;6161;43.014;25.840;2022-08-03T09:07:57;99771.44;;;33.27;nan
12197;BME280;6161;43.014;25.840;2022-08-03T09:10:23;99754.81;;;33.22;nan
12197;BME280;6161;43.014;25.840;2022-08-03T09:12:50;99770.16;;;33.43;nan
12197;BME280;6161;43.014;25.840;2022-08-03T09:17:48;99766.03;;;33.65;nan
12197;BME280;6161;43.014;25.840;2022-08-03T09:20:14;99750.97;;;33.90;nan
12197;BME280;6161;43.014;25.840;2022-08-03T09:23:04;99760.34;;;33.99;nan
12197;BME280;6161;43.014;25.840;2022-08-03T09:25:36;99760.44;;;34.13;nan
12197;BME280;6161;43.014;25.840;2022-08-03T09:28:11;99766.72;;;34.24;nan
12197;BME280;6161;43.014;25.840;2022-08-03T09:30:39;99775.50;;;34.12;nan
12197;BME280;6161;43.014;25.840;2022-08-03T09:33:10;99756.91;;;34.07;nan
12197;BME280;6161;43.014;25.840;2022-08-03T09:35:44;99777.22;;;34.08;nan
12197;BME280;6161;43.014;25.840;2022-08-03T09:38:18;99771.94;;;34.06;nan
12197;BME280;6161;43.014;25.840;2022-08-03T09:40:48;99768.44;;;34.20;nan
12197;BME280;6161;43.014;25.840;2022-08-03T09:43:13;99748.56;;;34.26;nan
12197;BME280;6161;43.014;25.840;2022-08-03T09:48:27;99762.94;;;34.15;nan
12197;BME280;6161;43.014;25.840;2022-08-03T09:50:58;99732.72;;;34.03;nan
12197;BME280;6161;43.014;25.840;2022-08-03T09:53:24;99757.97;;;34.12;nan
12197;BME280;6161;43.014;25.840;2022-08-03T09:58:17;99793.69;;;34.23;nan
12197;BME280;6161;43.014;25.840;2022-08-03T10:01:01;99745.75;;;34.07;nan
12197;BME280;6161;43.014;25.840;2022-08-03T10:03:30;99734.41;;;34.23;nan
12197;BME280;6161;43.014;25.840;2022-08-03T10:05:56;99730.44;;;34.29;nan
12197;BME280;6161;43.014;25.840;2022-08-03T10:08:22;99731.25;;;34.29;nan
12197;BME280;6161;43.014;25.840;2022-08-03T10:10:49;99744.09;;;34.25;nan
12197;BME280;6161;43.014;25.840;2022-08-03T10:13:17;99746.00;;;34.30;nan
12197;BME280;6161;43.014;25.840;2022-08-03T10:15:44;99740.72;;;34.09;nan
12197;BME280;6161;43.014;25.840;2022-08-03T10:18:10;99738.41;;;34.17;nan
12197;BME280;6161;43.014;25.840;2022-08-03T10:20:37;99733.53;;;34.03;nan
12197;BME280;6161;43.014;25.840;2022-08-03T10:23:07;99724.06;;;34.04;nan
12197;BME280;6161;43.014;25.840;2022-08-03T10:25:35;99721.47;;;33.70;nan
12197;BME280;6161;43.014;25.840;2022-08-03T10:28:02;99748.63;;;33.54;nan
12197;BME280;6161;43.014;25.840;2022-08-03T10:30:31;99703.00;;;33.79;nan
12197;BME280;6161;43.014;25.840;2022-08-03T10:33:04;99708.56;;;33.98;nan
12197;BME280;6161;43.014;25.840;2022-08-03T10:35:36;99719.56;;;34.08;nan
12197;BME280;6161;43.014;25.840;2022-08-03T10:38:08;99698.00;;;34.19;nan
12197;BME280;6161;43.014;25.840;2022-08-03T10:40:37;99710.72;;;34.58;nan
12197;BME280;6161;43.014;25.840;2022-08-03T10:43:18;99688.94;;;34.79;nan
12197;BME280;6161;43.014;25.840;2022-08-03T10:45:45;99687.03;;;35.07;nan
12197;BME280;6161;43.014;25.840;2022-08-03T10:48:11;99707.63;;;35.11;nan
12197;BME280;6161;43.014;25.840;2022-08-03T10:50:38;99702.81;;;34.65;nan
12197;BME280;6161;43.014;25.840;2022-08-03T10:53:06;99747.13;;;34.29;nan
12197;BME280;6161;43.014;25.840;2022-08-03T10:55:41;99708.09;;;33.91;nan
12197;BME280;6161;43.014;25.840;2022-08-03T10:58:48;99706.13;;;33.73;nan
12197;BME280;6161;43.014;25.840;2022-08-03T11:01:14;99708.69;;;33.88;nan
12197;BME280;6161;43.014;25.840;2022-08-03T11:06:23;99670.88;;;34.44;nan
12197;BME280;6161;43.014;25.840;2022-08-03T11:11:34;99727.63;;;34.10;nan
12197;BME280;6161;43.014;25.840;2022-08-03T11:19:02;99689.28;;;33.83;nan
12197;BME280;6161;43.014;25.840;2022-08-03T11:27:34;99671.47;;;33.84;nan
12197;BME280;6161;43.014;25.840;2022-08-03T11:35:17;99653.81;;;34.13;nan
12197;BME280;6161;43.014;25.840;2022-08-03T11:43:42;99657.44;;;34.46;nan
12197;BME280;6161;43.014;25.840;2022-08-03T11:48:22;99646.41;;;34.73;nan
12197;BME280;6161;43.014;25.840;2022-08-03T11:50:50;99651.47;;;34.85;nan
12197;BME280;6161;43.014;25.840;2022-08-03T11:53:17;99651.16;;;34.87;nan
12197;BME280;6161;43.014;25.840;2022-08-03T11:55:44;99649.22;;;35.01;nan
12197;BME280;6161;43.014;25.840;2022-08-03T11:58:20;99640.25;;;35.04;nan
12197;BME280;6161;43.014;25.840;2022-08-03T12:00:47;99636.63;;;34.57;nan
12197;BME280;6161;43.014;25.840;2022-08-03T12:03:15;99639.56;;;34.33;nan
12197;BME280;6161;43.014;25.840;2022-08-03T12:08:16;99648.09;;;33.85;nan
12197;BME280;6161;43.014;25.840;2022-08-03T12:10:47;99635.06;;;33.80;nan
12197;BME280;6161;43.014;25.840;2022-08-03T12:13:13;99632.50;;;33.65;nan
12197;BME280;6161;43.014;25.840;2022-08-03T12:15:39;99619.19;;;33.81;nan
12197;BME280;6161;43.014;25.840;2022-08-03T12:18:17;99623.28;;;34.07;nan
12197;BME280;6161;43.014;25.840;2022-08-03T12:20:43;99638.16;;;34.17;nan
12197;BME280;6161;43.014;25.840;2022-08-03T12:23:10;99620.66;;;34.30;nan
12197;BME280;6161;43.014;25.840;2022-08-03T12:25:37;99627.69;;;34.27;nan
12197;BME280;6161;43.014;25.840;2022-08-03T12:30:32;99633.47;;;33.93;nan
12197;BME280;6161;43.014;25.840;2022-08-03T12:32:58;99628.13;;;33.59;nan
12197;BME280;6161;43.014;25.840;2022-08-03T12:35:24;99627.13;;;33.50;nan
12197;BME280;6161;43.014;25.840;2022-08-03T12:37:50;99633.19;;;33.33;nan
12197;BME280;6161;43.014;25.840;2022-08-03T12:40:24;99613.22;;;33.50;nan
12197;BME280;6161;43.014;25.840;2022-08-03T12:42:53;99630.34;;;33.62;nan
12197;BME280;6161;43.014;25.840;2022-08-03T12:45:25;99615.56;;;33.61;nan
12197;BME280;6161;43.014;25.840;2022-08-03T12:47:58;99600.66;;;33.52;nan
12197;BME280;6161;43.014;25.840;2022-08-03T12:50:32;99605.59;;;33.79;nan
12197;BME280;6161;43.014;25.840;2022-08-03T12:52:59;99606.00;;;34.05;nan
12197;BME280;6161;43.014;25.840;2022-08-03T12:55:26;99612.06;;;34.13;nan
12197;BME280;6161;43.014;25.840;2022-08-03T12:58:02;99598.38;;;34.30;nan
12197;BME280;6161;43.014;25.840;2022-08-03T13:00:28;99592.81;;;34.30;nan
12197;BME280;6161;43.014;25.840;2022-08-03T13:03:06;99590.72;;;34.55;nan
12197;BME280;6161;43.014;25.840;2022-08-03T13:05:44;99572.28;;;34.72;nan
12197;BME280;6161;43.014;25.840;2022-08-03T13:08:21;99608.66;;;34.81;nan
12197;BME280;6161;43.014;25.840;2022-08-03T13:13:12;99595.50;;;34.21;nan
12197;BME280;6161;43.014;25.840;2022-08-03T13:15:38;99604.66;;;34.03;nan
12197;BME280;6161;43.014;25.840;2022-08-03T13:18:03;99599.47;;;33.96;nan
12197;BME280;6161;43.014;25.840;2022-08-03T13:22:54;99600.59;;;33.76;nan
12197;BME280;6161;43.014;25.840;2022-08-03T13:25:21;99591.13;;;33.39;nan
12197;BME280;6161;43.014;25.840;2022-08-03T13:27:47;99594.19;;;33.38;nan
12197;BME280;6161;43.014;25.840;2022-08-03T13:30:13;99627.69;;;33.28;nan
12197;BME280;6161;43.014;25.840;2022-08-03T13:32:39;99571.91;;;33.19;nan
12197;BME280;6161;43.014;25.840;2022-08-03T13:35:05;99598.69;;;33.34;nan
12197;BME280;6161;43.014;25.840;2022-08-03T13:37:31;99588.56;;;33.43;nan
12197;BME280;6161;43.014;25.840;2022-08-03T13:39:58;99595.09;;;33.52;nan
12197;BME280;6161;43.014;25.840;2022-08-03T13:42:24;99583.25;;;33.65;nan
12197;BME280;6161;43.014;25.840;2022-08-03T13:44:49;99577.78;;;33.79;nan
12197;BME280;6161;43.014;25.840;2022-08-03T13:47:15;99612.50;;;33.63;nan
12197;BME280;6161;43.014;25.840;2022-08-03T13:49:40;99557.06;;;33.47;nan
12197;BME280;6161;43.014;25.840;2022-08-03T13:52:06;99585.78;;;33.43;nan
12197;BME280;6161;43.014;25.840;2022-08-03T13:54:31;99575.88;;;33.13;nan
12197;BME280;6161;43.014;25.840;2022-08-03T13:56:58;99573.63;;;32.91;nan
12197;BME280;6161;43.014;25.840;2022-08-03T13:59:24;99559.72;;;32.91;nan
12197;BME280;6161;43.014;25.840;2022-08-03T14:01:51;99573.03;;;32.94;nan
12197;BME280;6161;43.014;25.840;2022-08-03T14:04:18;99577.16;;;32.96;nan
12197;BME280;6161;43.014;25.840;2022-08-03T14:06:44;99582.94;;;33.05;nan
12197;BME280;6161;43.014;25.840;2022-08-03T14:09:11;99539.97;;;33.16;nan
12197;BME280;6161;43.014;25.840;2022-08-03T14:11:38;99574.94;;;33.22;nan
12197;BME280;6161;43.014;25.840;2022-08-03T14:16:29;99557.97;;;33.43;nan
12197;BME280;6161;43.014;25.840;2022-08-03T14:18:54;99530.44;;;33.41;nan
12197;BME280;6161;43.014;25.840;2022-08-03T14:21:20;99572.03;;;33.52;nan
12197;BME280;6161;43.014;25.840;2022-08-03T14:23:46;99567.44;;;33.42;nan
12197;BME280;6161;43.014;25.840;2022-08-03T14:26:11;99558.47;;;33.26;nan
12197;BME280;6161;43.014;25.840;2022-08-03T14:28:38;99560.59;;;33.34;nan
12197;BME280;6161;43.014;25.840;2022-08-03T14:31:04;99540.09;;;33.49;nan
12197;BME280;6161;43.014;25.840;2022-08-03T14:33:29;99542.25;;;33.33;nan
12197;BME280;6161;43.014;25.840;2022-08-03T14:35:55;99573.47;;;33.49;nan
12197;BME280;6161;43.014;25.840;2022-08-03T14:38:21;99556.31;;;33.42;nan
12197;BME280;6161;43.014;25.840;2022-08-03T14:40:47;99538.88;;;33.17;nan
12197;BME280;6161;43.014;25.840;2022-08-03T14:45:39;99561.78;;;33.28;nan
12197;BME280;6161;43.014;25.840;2022-08-03T14:48:06;99556.81;;;33.25;nan
12197;BME280;6161;43.014;25.840;2022-08-03T14:50:31;99527.13;;;33.20;nan
12197;BME280;6161;43.014;25.840;2022-08-03T14:52:57;99533.31;;;33.17;nan
12197;BME280;6161;43.014;25.840;2022-08-03T14:55:23;99534.25;;;33.08;nan
12197;BME280;6161;43.014;25.840;2022-08-03T14:57:48;99553.03;;;33.16;nan
12197;BME280;6161;43.014;25.840;2022-08-03T15:00:14;99525.25;;;32.92;nan
12197;BME280;6161;43.014;25.840;2022-08-03T15:02:40;99552.28;;;33.10;nan
12197;BME280;6161;43.014;25.840;2022-08-03T15:05:06;99531.41;;;33.13;nan
12197;BME280;6161;43.014;25.840;2022-08-03T15:07:31;99544.41;;;33.17;nan
12197;BME280;6161;43.014;25.840;2022-08-03T15:09:57;99533.31;;;33.17;nan
12197;BME280;6161;43.014;25.840;2022-08-03T15:12:24;99533.75;;;33.24;nan
12197;BME280;6161;43.014;25.840;2022-08-03T15:14:49;99537.91;;;33.27;nan
12197;BME280;6161;43.014;25.840;2022-08-03T15:17:15;99518.56;;;33.17;nan
12197;BME280;6161;43.014;25.840;2022-08-03T15:19:40;99518.25;;;33.18;nan
12197;BME280;6161;43.014;25.840;2022-08-03T15:22:06;99531.66;;;33.35;nan
12197;BME280;6161;43.014;25.840;2022-08-03T15:24:32;99537.81;;;33.32;nan
12197;BME280;6161;43.014;25.840;2022-08-03T15:29:22;99529.63;;;33.22;nan
12197;BME280;6161;43.014;25.840;2022-08-03T15:34:13;99525.91;;;33.27;nan
12197;BME280;6161;43.014;25.840;2022-08-03T15:36:39;99523.81;;;33.18;nan
12197;BME280;6161;43.014;25.840;2022-08-03T15:39:05;99511.53;;;33.00;nan
12197;BME280;6161;43.014;25.840;2022-08-03T15:41:30;99533.94;;;33.09;nan
12197;BME280;6161;43.014;25.840;2022-08-03T15:43:56;99526.91;;;33.17;nan
12197;BME280;6161;43.014;25.840;2022-08-03T15:46:22;99519.41;;;33.17;nan
12197;BME280;6161;43.014;25.840;2022-08-03T15:48:47;99514.19;;;33.11;nan
12197;BME280;6161;43.014;25.840;2022-08-03T15:51:13;99507.94;;;32.76;nan
12197;BME280;6161;43.014;25.840;2022-08-03T15:53:39;99488.34;;;32.67;nan
12197;BME280;6161;43.014;25.840;2022-08-03T15:56:05;99511.19;;;32.59;nan
12197;BME280;6161;43.014;25.840;2022-08-03T15:58:35;99513.03;;;32.39;nan
12197;BME280;6161;43.014;25.840;2022-08-03T16:01:01;99527.25;;;32.38;nan